.
WxDataArchive / Data Records for 2015-10-31
2015-10-30 October 2015 2015-11-01

Data Records for Saturday, 31 October 2015

Time	Temp	Chill	HIndex	Humid	Dewpt	 Wind 	HiWind	WindDir	Rain 	Barom
-----	----	-----	------	-----	-----	------	------	-------	-----	-----
00:00	43.3	43.3	43.3	88	40.0	0	0	---	0.00	30.120 
00:05	43.6	43.6	43.6	87	40.0	0	0	---	0.00	30.120 
00:10	43.9	43.9	43.9	87	40.3	0	0	---	0.00	30.120 
00:15	43.9	43.9	43.9	86	40.0	0	0	---	0.00	30.110 
00:20	44.1	44.1	44.1	86	40.2	0	0	---	0.00	30.110 
00:25	44.1	44.1	44.1	85	39.9	0	0	---	0.00	30.110 
00:30	44.1	44.1	44.1	85	39.9	0	0	---	0.00	30.114 
00:35	43.9	43.9	43.9	84	39.4	0	0	---	0.00	30.114 
00:40	43.9	43.9	43.9	84	39.4	0	0	---	0.00	30.114 
00:45	43.9	43.9	43.9	84	39.4	0	0	---	0.00	30.104 
00:50	43.8	43.8	43.8	84	39.3	0	0	---	0.00	30.104 
00:55	43.6	43.6	43.6	84	39.1	0	0	---	0.00	30.104 
01:00	43.6	43.6	43.6	84	39.1	0	0	---	0.00	30.104 
01:05	43.5	43.5	43.5	84	39.0	0	0	---	0.00	30.104 
01:10	43.3	43.3	43.3	84	38.8	0	0	---	0.00	30.104 
01:15	43.2	43.2	43.2	84	38.7	0	0	---	0.00	30.098 
01:20	43.1	43.1	43.1	84	38.6	0	0	---	0.00	30.098 
01:25	42.9	42.9	42.9	84	38.4	0	0	---	0.00	30.098 
01:30	42.8	42.8	42.8	84	38.3	0	0	---	0.00	30.088 
01:35	42.8	42.8	42.8	85	38.6	0	0	---	0.00	30.088 
01:40	42.8	42.8	42.8	85	38.6	0	0	---	0.00	30.088 
01:45	42.8	42.8	42.8	85	38.6	0	0	---	0.00	30.088 
01:50	42.6	42.6	42.6	85	38.4	0	0	---	0.00	30.088 
01:55	42.6	42.6	42.6	85	38.4	0	0	---	0.00	30.088 
02:00	42.6	42.6	42.6	85	38.4	0	0	---	0.00	30.074 
02:05	42.6	42.6	42.6	85	38.4	0	0	---	0.00	30.074 
02:10	42.6	42.6	42.6	85	38.4	0	0	---	0.00	30.074 
02:15	42.6	42.6	42.6	85	38.4	0	0	---	0.00	30.077 
02:20	42.6	42.6	42.6	85	38.4	0	0	---	0.00	30.077 
02:25	42.6	42.6	42.6	85	38.4	0	0	---	0.00	30.077 
02:30	42.6	42.6	42.6	85	38.4	0	0	---	0.00	30.075 
02:35	42.6	42.6	42.6	86	38.7	0	0	---	0.00	30.075 
02:40	42.6	42.6	42.6	86	38.7	0	0	---	0.00	30.075 
02:45	42.8	42.8	42.8	86	38.9	0	0	---	0.00	30.075 
02:50	42.8	42.8	42.8	86	38.9	0	0	---	0.00	30.075 
02:55	42.8	42.8	42.8	86	38.9	0	0	---	0.00	30.075 
03:00	42.8	42.8	42.8	86	38.9	0	0	---	0.00	30.073 
03:05	42.9	42.9	42.9	86	39.0	0	0	---	0.00	30.073 
03:10	42.9	42.9	42.9	85	38.7	0	0	---	0.00	30.073 
03:15	43.1	43.1	43.1	85	38.9	0	0	---	0.00	30.060 
03:20	43.2	43.2	43.2	85	39.0	0	0	---	0.00	30.060 
03:25	43.2	43.2	43.2	85	39.0	0	0	---	0.00	30.060 
03:30	43.3	43.3	43.3	84	38.8	0	0	---	0.00	30.058 
03:35	43.5	43.5	43.5	84	39.0	0	0	---	0.00	30.058 
03:40	43.6	43.6	43.6	83	38.8	0	0	---	0.00	30.058 
03:45	43.8	43.8	43.8	83	39.0	0	1	90	0.00	30.055 
03:50	43.9	43.9	43.9	83	39.1	0	1	90	0.00	30.055 
03:55	43.9	43.9	43.9	82	38.8	0	0	---	0.00	30.055 
04:00	44.1	44.1	44.1	82	39.0	0	0	---	0.00	30.060 
04:05	44.1	44.1	44.1	82	39.0	0	1	90	0.00	30.060 
04:10	44.2	44.2	44.2	82	39.1	0	1	90	0.00	30.060 
04:15	44.3	44.3	44.3	81	38.8	0	0	---	0.00	30.058 
04:20	44.3	44.3	44.3	81	38.8	0	0	---	0.00	30.058 
04:25	44.5	44.5	44.5	81	39.0	0	0	---	0.00	30.058 
04:30	44.5	44.5	44.5	81	39.0	0	0	---	0.00	30.066 
04:35	44.5	44.5	44.5	81	39.0	0	0	---	0.00	30.066 
04:40	44.5	44.5	44.5	81	39.0	0	1	90	0.00	30.066 
04:45	44.5	44.5	44.5	81	39.0	0	1	90	0.00	30.059 
04:50	44.6	44.6	44.6	81	39.1	0	2	90	0.00	30.059 
04:55	44.6	44.6	44.6	80	38.8	0	1	90	0.00	30.059 
05:00	44.8	44.8	44.8	80	39.0	0	3	90	0.00	30.056 
05:05	44.8	44.8	44.8	80	39.0	0	1	90	0.00	30.056 
05:10	44.9	44.9	44.9	80	39.1	0	1	90	0.00	30.056 
05:15	44.9	44.9	44.9	80	39.1	0	1	90	0.00	30.054 
05:20	44.9	44.9	44.9	79	38.8	0	1	90	0.00	30.054 
05:25	44.9	44.9	44.9	79	38.8	0	1	90	0.00	30.054 
05:30	44.9	44.9	44.9	79	38.8	0	1	90	0.00	30.055 
05:35	44.9	44.9	44.9	79	38.8	0	1	90	0.00	30.055 
05:40	44.9	44.9	44.9	79	38.8	0	1	90	0.00	30.055 
05:45	44.9	44.9	44.9	80	39.1	0	2	90	0.00	30.051 
05:50	44.9	44.9	44.9	80	39.1	0	1	90	0.00	30.051 
05:55	44.9	44.9	44.9	80	39.1	0	1	90	0.00	30.051 
06:00	44.9	44.9	44.9	80	39.1	0	1	90	0.00	30.057 
06:05	44.9	44.9	44.9	80	39.1	0	1	90	0.00	30.057 
06:10	44.9	44.9	44.9	80	39.1	0	3	90	0.00	30.057 
06:15	44.9	44.9	44.9	80	39.1	0	1	90	0.00	30.056 
06:20	44.9	44.9	44.9	80	39.1	0	2	90	0.00	30.056 
06:25	44.9	44.9	44.9	80	39.1	0	1	90	0.00	30.056 
06:30	44.8	44.8	44.8	80	39.0	0	1	90	0.00	30.050 
06:35	44.8	44.8	44.8	80	39.0	0	1	90	0.00	30.050 
06:40	44.8	44.8	44.8	80	39.0	0	1	90	0.00	30.050 
06:45	44.8	44.8	44.8	80	39.0	0	4	90	0.00	30.044 
06:50	44.8	44.8	44.8	80	39.0	0	3	90	0.00	30.044 
06:55	44.6	44.6	44.6	80	38.8	1	4	90	0.00	30.044 
07:00	44.6	44.6	44.6	80	38.8	0	1	90	0.00	30.034 
07:05	44.6	44.6	44.6	80	38.8	0	2	90	0.00	30.034 
07:10	44.6	44.6	44.6	81	39.1	0	1	90	0.00	30.034 
07:15	44.6	44.6	44.6	81	39.1	0	1	90	0.00	30.032 
07:20	44.5	44.5	44.5	81	39.0	0	3	90	0.00	30.032 
07:25	44.5	44.5	44.5	81	39.0	0	2	90	0.00	30.032 
07:30	44.5	44.5	44.5	81	39.0	0	1	90	0.00	30.030 
07:35	44.5	44.5	44.5	81	39.0	0	2	90	0.00	30.030 
07:40	44.3	44.3	44.3	81	38.8	0	1	90	0.00	30.030 
07:45	44.3	44.3	44.3	81	38.8	0	0	---	0.00	30.037 
07:50	44.3	44.3	44.3	81	38.8	0	2	90	0.00	30.037 
07:55	44.2	44.2	44.2	81	38.7	0	1	90	0.00	30.037 
08:00	44.2	44.2	44.2	81	38.7	0	1	90	0.00	30.042 
08:05	44.2	44.2	44.2	81	38.7	0	1	90	0.00	30.042 
08:10	44.1	44.1	44.1	81	38.6	0	3	90	0.00	30.042 
08:15	44.2	44.2	44.2	81	38.7	0	2	90	0.00	30.034 
08:20	44.2	44.2	44.2	81	38.7	0	1	90	0.00	30.034 
08:25	44.2	44.2	44.2	82	39.1	0	1	90	0.00	30.034 
08:30	44.2	44.2	44.2	82	39.1	0	1	90	0.00	30.029 
08:35	44.2	44.2	44.2	82	39.1	0	2	90	0.00	30.029 
08:40	44.2	44.2	44.2	82	39.1	0	1	90	0.00	30.029 
08:45	44.2	44.2	44.2	82	39.1	0	1	90	0.00	30.018 
08:50	44.2	44.2	44.2	82	39.1	0	2	90	0.00	30.018 
08:55	44.2	44.2	44.2	82	39.1	0	3	90	0.00	30.018 
09:00	44.2	44.2	44.2	82	39.1	0	2	90	0.00	30.016 
09:05	44.3	44.3	44.3	82	39.2	0	1	90	0.00	30.016 
09:10	44.3	44.3	44.3	81	38.8	1	3	90	0.00	30.016 
09:15	44.5	44.5	44.5	81	39.0	1	5	90	0.00	30.031 
09:20	44.6	44.6	44.6	81	39.1	1	5	112	0.00	30.031 
09:25	44.6	44.6	44.6	81	39.1	0	4	135	0.00	30.031 
09:30	44.8	44.8	44.8	81	39.3	0	2	135	0.00	30.033 
09:35	44.8	44.8	44.8	80	39.0	1	4	90	0.00	30.033 
09:40	44.8	44.8	44.8	83	40.0	1	5	90	0.00	30.033 
09:45	44.9	44.9	44.9	80	39.1	0	2	90	0.00	30.032 
09:50	45.1	45.1	45.1	79	39.0	1	3	90	0.00	30.032 
09:55	45.1	45.1	45.1	79	39.0	1	4	90	0.00	30.032 
10:00	45.2	45.2	45.2	78	38.8	1	6	90	0.00	30.016 
10:05	45.2	45.2	45.2	78	38.8	1	3	68	0.00	30.016 
10:10	45.2	45.2	45.2	78	38.8	1	3	68	0.00	30.016 
10:15	45.4	45.4	45.4	77	38.6	1	6	68	0.00	30.019 
10:20	45.4	45.4	45.4	77	38.6	1	4	112	0.00	30.019 
10:25	45.5	45.5	45.5	77	38.7	1	3	112	0.00	30.019 
10:30	45.5	45.5	45.5	76	38.4	1	6	90	0.00	29.999 
10:35	45.5	45.5	45.5	76	38.4	2	5	90	0.00	29.999 
10:40	45.7	45.7	45.7	76	38.6	1	5	112	0.00	29.999 
10:45	45.8	45.8	45.8	76	38.7	0	2	135	0.00	29.984 
10:50	45.8	45.8	45.8	75	38.3	1	5	112	0.00	29.984 
10:55	46.0	46.0	46.0	75	38.5	0	3	68	0.00	29.984 
11:00	46.0	46.0	46.0	75	38.5	1	4	90	0.00	29.983 
11:05	46.0	46.0	46.0	75	38.5	2	7	112	0.00	29.983 
11:10	46.0	46.0	46.0	75	38.5	1	5	112	0.00	29.983 
11:15	46.0	46.0	46.0	75	38.5	1	4	68	0.00	29.979 
11:20	46.0	46.0	46.0	75	38.5	2	7	112	0.00	29.979 
11:25	46.0	46.0	46.0	75	38.5	1	3	90	0.00	29.979 
11:30	46.1	46.1	46.1	75	38.6	1	4	90	0.00	29.971 
11:35	46.2	46.2	46.2	75	38.7	0	2	112	0.00	29.971 
11:40	46.4	46.4	46.4	75	38.9	1	4	112	0.00	29.971 
11:45	46.7	46.7	46.7	73	38.5	1	5	90	0.00	29.968 
11:50	46.8	46.8	46.8	73	38.6	1	9	90	0.00	29.968 
11:55	47.0	47.0	47.0	73	38.8	2	4	90	0.00	29.968 
12:00	47.1	47.1	47.1	72	38.5	1	3	90	0.00	29.936 
12:05	47.3	47.3	47.3	72	38.7	1	4	90	0.00	29.936 
12:10	47.3	47.3	47.3	72	38.7	0	2	90	0.00	29.936 
12:15	47.4	47.4	47.4	73	39.2	0	1	90	0.00	29.975 
12:20	47.6	47.6	47.6	72	39.0	1	5	90	0.00	29.975 
12:25	47.7	47.7	47.7	72	39.1	1	4	90	0.00	29.975 
12:30	47.7	47.7	47.7	71	38.8	1	4	112	0.00	29.967 
12:35	47.9	47.9	47.9	71	39.0	2	6	90	0.00	29.967 
12:40	48.0	48.0	48.0	71	39.1	1	4	90	0.00	29.967 
12:45	48.2	48.2	48.2	70	38.9	2	5	112	0.00	29.965 
12:50	48.2	48.2	48.2	70	38.9	1	5	90	0.00	29.965 
12:55	48.2	48.2	48.2	70	38.9	1	7	68	0.00	29.965 
13:00	48.3	48.3	48.3	70	39.0	1	4	112	0.00	29.936 
13:05	48.5	48.5	48.5	70	39.2	1	5	90	0.00	29.936 
13:10	48.5	48.5	48.5	69	38.8	1	5	90	0.00	29.936 
13:15	48.5	48.5	48.5	69	38.8	1	4	112	0.00	29.935 
13:20	48.5	48.5	48.5	70	39.2	1	4	112	0.00	29.935 
13:25	48.5	48.5	48.5	70	39.2	1	5	112	0.00	29.935 
13:30	48.3	48.3	48.3	70	39.0	0	3	112	0.00	29.924 
13:35	48.3	48.3	48.3	70	39.0	1	6	112	0.00	29.924 
13:40	48.5	48.5	48.5	70	39.2	1	5	112	0.00	29.924 
13:45	48.5	48.5	48.5	70	39.2	1	5	90	0.00	29.910 
13:50	48.6	48.6	48.6	70	39.3	2	4	90	0.00	29.910 
13:55	48.8	48.8	48.8	70	39.5	1	7	90	0.00	29.910 
14:00	48.9	48.9	48.9	69	39.2	2	5	90	0.00	29.890 
14:05	49.1	49.1	49.1	69	39.4	1	6	135	0.00	29.890 
14:10	49.2	49.2	49.2	70	39.8	1	3	68	0.00	29.890 
14:15	49.2	49.2	49.2	69	39.5	1	4	135	0.00	29.884 
14:20	49.2	49.2	49.2	69	39.5	1	5	90	0.00	29.884 
14:25	49.2	49.2	49.2	69	39.5	2	5	90	0.00	29.884 
14:30	49.2	49.2	49.2	69	39.5	1	3	112	0.00	29.872 
14:35	49.2	49.2	49.2	70	39.8	1	3	112	0.00	29.872 
14:40	49.4	49.4	49.4	70	40.0	0	1	112	0.00	29.872 
14:45	49.5	49.5	49.5	70	40.1	0	2	112	0.00	29.857 
14:50	49.5	49.5	49.5	70	40.1	1	6	112	0.00	29.857 
14:55	49.6	49.6	49.6	69	39.9	1	4	90	0.00	29.857 
15:00	49.8	49.8	49.8	69	40.0	1	3	90	0.00	29.840 
15:05	49.8	49.8	49.8	69	40.0	0	3	90	0.00	29.840 
15:10	49.8	49.8	49.8	70	40.4	1	5	90	0.00	29.840 
15:15	49.9	49.9	49.9	70	40.5	1	3	90	0.00	29.838 
15:20	49.9	49.9	49.9	69	40.1	0	2	90	0.00	29.838 
15:25	49.9	49.9	49.9	69	40.1	1	3	90	0.00	29.838 
15:30	50.1	50.1	50.1	69	40.3	1	4	90	0.00	29.822 
15:35	50.1	50.1	50.1	69	40.3	1	4	0	0.00	29.822 
15:40	50.2	50.2	50.2	69	40.4	1	5	90	0.00	29.822 
15:45	50.2	50.2	50.2	69	40.4	1	2	112	0.00	29.807 
15:50	50.2	50.2	50.2	71	41.2	1	2	112	0.00	29.807 
15:55	50.1	50.1	50.1	72	41.4	0	2	90	0.00	29.807 
16:00	50.1	50.1	50.1	72	41.4	0	2	90	0.00	29.807 
16:05	49.9	49.9	49.9	72	41.2	1	3	90	0.00	29.807 
16:10	49.9	49.9	49.9	73	41.6	0	2	90	0.00	29.807 
16:15	49.9	49.9	49.9	73	41.6	1	4	90	0.00	29.797 
16:20	49.8	49.8	49.8	75	42.2	0	3	90	0.00	29.797 
16:25	49.8	49.8	49.8	76	42.5	0	2	90	0.00	29.797 
16:30	49.6	49.6	49.6	77	42.7	0	1	90	0.00	29.804 
16:35	49.5	49.5	49.5	78	42.9	0	0	---	0.00	29.804 
16:40	49.4	49.4	49.4	78	42.8	0	3	90	0.00	29.804 
16:45	49.4	49.4	49.4	77	42.5	0	2	90	0.00	29.790 
16:50	49.4	49.4	49.4	78	42.8	0	2	90	0.00	29.790 
16:55	49.4	49.4	49.4	78	42.8	0	1	90	0.00	29.790 
17:00	49.5	49.5	49.5	78	42.9	0	1	90	0.00	29.802 
17:05	49.5	49.5	49.5	78	42.9	0	1	90	0.00	29.802 
17:10	49.5	49.5	49.5	78	42.9	0	1	90	0.00	29.802 
17:15	49.5	49.5	49.5	78	42.9	0	2	90	0.00	29.791 
17:20	49.6	49.6	49.6	77	42.7	0	1	90	0.00	29.791 
17:25	49.6	49.6	49.6	78	43.0	0	1	90	0.00	29.791 
17:30	49.6	49.6	49.6	78	43.0	1	3	90	0.00	29.786 
17:35	49.6	49.6	49.6	79	43.4	0	2	90	0.00	29.786 
17:40	49.5	49.5	49.5	80	43.6	1	3	90	0.00	29.786 
17:45	49.4	49.4	49.4	80	43.5	1	3	90	0.00	29.776 
17:50	49.2	49.2	49.2	80	43.3	0	1	90	0.00	29.776 
17:55	49.2	49.2	49.2	80	43.3	0	3	90	0.00	29.776 
18:00	49.2	49.2	49.2	81	43.6	0	3	90	0.00	29.776 
18:05	49.2	49.2	49.2	81	43.6	0	2	90	0.00	29.776 
18:10	49.2	49.2	49.2	81	43.6	1	3	90	0.00	29.776 
18:15	49.2	49.2	49.2	81	43.6	0	2	90	0.00	29.774 
18:20	49.2	49.2	49.2	80	43.3	1	3	112	0.00	29.774 
18:25	49.4	49.4	49.4	81	43.8	0	2	112	0.00	29.774 
18:30	49.4	49.4	49.4	80	43.5	1	3	112	0.00	29.772 
18:35	49.5	49.5	49.5	80	43.6	0	1	112	0.00	29.772 
18:40	49.5	49.5	49.5	81	43.9	0	1	112	0.00	29.772 
18:45	49.5	49.5	49.5	81	43.9	0	1	112	0.00	29.767 
18:50	49.5	49.5	49.5	81	43.9	0	1	112	0.00	29.767 
18:55	49.4	49.4	49.4	81	43.8	0	1	112	0.00	29.767 
19:00	49.4	49.4	49.4	82	44.1	0	1	112	0.00	29.758 
19:05	49.4	49.4	49.4	81	43.8	0	1	112	0.00	29.758 
19:10	49.5	49.5	49.5	81	43.9	0	1	112	0.00	29.758 
19:15	49.6	49.6	49.6	81	44.0	0	2	112	0.00	29.761 
19:20	49.8	49.8	49.8	80	43.9	0	1	112	0.00	29.761 
19:25	49.9	49.9	49.9	80	44.0	0	1	112	0.00	29.761 
19:30	50.1	50.1	50.1	79	43.8	0	1	112	0.00	29.755 
19:35	50.4	50.4	50.4	78	43.8	0	2	112	0.00	29.755 
19:40	50.7	50.7	50.7	77	43.8	0	3	112	0.00	29.755 
19:45	51.0	51.0	51.0	76	43.7	0	2	112	0.00	29.744 
19:50	51.3	51.3	51.3	75	43.6	0	2	112	0.00	29.744 
19:55	51.4	51.4	51.4	75	43.7	0	2	112	0.00	29.744 
20:00	51.6	51.6	51.6	74	43.6	0	1	112	0.00	29.743 
20:05	51.7	51.7	51.7	74	43.7	0	1	112	0.00	29.743 
20:10	51.9	51.9	51.9	73	43.5	0	1	112	0.00	29.743 
20:15	52.0	52.0	52.0	73	43.6	0	2	112	0.00	29.754 
20:20	52.0	52.0	52.0	74	44.0	0	1	112	0.00	29.754 
20:25	52.0	52.0	52.0	75	44.3	0	1	112	0.00	29.754 
20:30	52.0	52.0	52.0	77	45.0	0	0	---	0.01	29.757 
20:35	51.7	51.7	51.7	78	45.1	0	1	112	0.00	29.757 
20:40	51.6	51.6	51.6	79	45.3	0	0	---	0.01	29.757 
20:45	51.3	51.3	51.3	81	45.7	0	1	112	0.00	29.748 
20:50	51.0	51.0	51.0	82	45.7	0	2	112	0.01	29.748 
20:55	50.8	50.8	50.8	83	45.8	0	1	112	0.00	29.748 
21:00	50.5	50.5	50.5	84	45.8	0	1	112	0.00	29.748 
21:05	50.4	50.4	50.4	85	46.1	0	2	112	0.01	29.748 
21:10	50.2	50.2	50.2	86	46.2	0	1	112	0.00	29.748 
21:15	50.2	50.2	50.2	86	46.2	0	1	112	0.00	29.741 
21:20	50.1	50.1	50.1	87	46.4	0	1	112	0.00	29.741 
21:25	50.1	50.1	50.1	87	46.4	0	2	112	0.00	29.741 
21:30	50.2	50.2	50.2	88	46.8	0	1	112	0.00	29.734 
21:35	50.2	50.2	50.2	88	46.8	0	3	112	0.00	29.734 
21:40	50.2	50.2	50.2	88	46.8	0	2	112	0.01	29.734 
21:45	50.2	50.2	50.2	88	46.8	0	1	112	0.00	29.727 
21:50	50.2	50.2	50.2	89	47.1	0	3	112	0.00	29.727 
21:55	50.4	50.4	50.4	89	47.3	1	3	112	0.00	29.727 
22:00	50.5	50.5	50.5	89	47.4	0	2	135	0.01	29.725 
22:05	50.7	50.7	50.7	90	47.9	0	2	0	0.01	29.725 
22:10	50.7	50.7	50.7	90	47.9	0	2	292	0.00	29.725 
22:15	50.7	50.7	50.7	90	47.9	0	2	292	0.01	29.732 
22:20	50.8	50.8	50.8	90	48.0	0	2	292	0.00	29.732 
22:25	50.8	50.8	50.8	91	48.3	0	2	292	0.00	29.732 
22:30	51.0	51.0	51.0	91	48.5	0	1	248	0.00	29.729 
22:35	51.0	51.0	51.0	91	48.5	0	3	248	0.00	29.729 
22:40	51.1	51.1	51.1	91	48.6	0	2	248	0.00	29.729 
22:45	51.1	51.1	51.1	91	48.6	0	3	248	0.00	29.724 
22:50	51.1	51.1	51.1	91	48.6	0	1	248	0.00	29.724 
22:55	51.1	51.1	51.1	92	48.9	0	2	248	0.01	29.724 
23:00	51.3	51.3	51.3	92	49.1	0	2	248	0.00	29.728 
23:05	51.3	51.3	51.3	92	49.1	0	2	248	0.00	29.728 
23:10	51.1	51.1	51.1	92	48.9	0	2	248	0.00	29.728 
23:15	51.3	51.3	51.3	92	49.1	0	2	248	0.00	29.722 
23:20	51.3	51.3	51.3	92	49.1	0	4	248	0.00	29.722 
23:25	51.4	51.4	51.4	92	49.2	0	2	248	0.00	29.722 
23:30	51.6	51.6	51.6	92	49.4	1	3	248	0.00	29.722 
23:35	51.6	51.6	51.6	92	49.4	0	3	248	0.00	29.722 
23:40	51.7	51.7	51.7	92	49.5	1	4	248	0.00	29.722 
23:45	51.9	51.9	51.9	92	49.6	0	3	248	0.00	29.724 
23:50	52.0	52.0	52.0	92	49.7	1	3	248	0.00	29.724 
23:55	52.0	52.0	52.0	92	49.7	0	4	248	0.00	29.724 

CoCoRaHS
IN-AL-39
A2 Web Hosting
Creative Commons License
GoDaddy
search engine by freefind advanced

loaded 2018-11-17 06:39:39 • last modified 2010-11-18 10:43:29
Privacy PolicyDisclaimer
• wx.awcolley.com is powered by PmWiki v.2002016 •
• all content (unless otherwise noted) © 2018 A W Colley